sensor_id;sensor_type;location;lat;lon;timestamp;pressure;altitude;pressure_sealevel;temperature;humidity
38289;BME280;24092;53.370;-6.588;2022-10-13T00:01:26;101092.06;;;2.22;100.00
38289;BME280;24092;53.370;-6.588;2022-10-13T00:03:53;101091.37;;;3.42;100.00
38289;BME280;24092;53.370;-6.588;2022-10-13T00:06:23;101087.89;;;5.06;100.00
38289;BME280;24092;53.370;-6.588;2022-10-13T00:08:51;101092.21;;;5.05;100.00
38289;BME280;24092;53.370;-6.588;2022-10-13T00:11:21;101092.77;;;5.54;100.00
38289;BME280;24092;53.370;-6.588;2022-10-13T00:13:50;101088.79;;;5.34;100.00
38289;BME280;24092;53.370;-6.588;2022-10-13T00:16:19;101088.55;;;5.75;100.00
38289;BME280;24092;53.370;-6.588;2022-10-13T00:18:47;101090.98;;;5.96;100.00
38289;BME280;24092;53.370;-6.588;2022-10-13T00:21:17;101093.39;;;5.90;100.00
38289;BME280;24092;53.370;-6.588;2022-10-13T00:23:45;101090.18;;;5.81;100.00
38289;BME280;24092;53.370;-6.588;2022-10-13T00:26:14;101089.00;;;5.71;100.00
38289;BME280;24092;53.370;-6.588;2022-10-13T00:28:41;101085.15;;;5.25;100.00
38289;BME280;24092;53.370;-6.588;2022-10-13T00:31:17;101085.08;;;5.29;100.00
38289;BME280;24092;53.370;-6.588;2022-10-13T00:33:45;101082.19;;;4.86;100.00
38289;BME280;24092;53.370;-6.588;2022-10-13T00:36:12;101075.76;;;4.90;100.00
38289;BME280;24092;53.370;-6.588;2022-10-13T00:38:39;101071.65;;;5.09;100.00
38289;BME280;24092;53.370;-6.588;2022-10-13T00:41:07;101072.90;;;4.55;100.00
38289;BME280;24092;53.370;-6.588;2022-10-13T00:43:53;101071.82;;;5.06;100.00
38289;BME280;24092;53.370;-6.588;2022-10-13T00:46:24;101071.34;;;4.40;100.00
38289;BME280;24092;53.370;-6.588;2022-10-13T00:48:51;101071.54;;;2.69;100.00
38289;BME280;24092;53.370;-6.588;2022-10-13T00:51:23;101071.69;;;2.47;100.00
38289;BME280;24092;53.370;-6.588;2022-10-13T00:53:52;101072.63;;;3.90;100.00
38289;BME280;24092;53.370;-6.588;2022-10-13T00:56:22;101069.37;;;4.58;100.00
38289;BME280;24092;53.370;-6.588;2022-10-13T00:58:51;101067.64;;;5.02;100.00
38289;BME280;24092;53.370;-6.588;2022-10-13T01:01:19;101067.21;;;5.15;100.00
38289;BME280;24092;53.370;-6.588;2022-10-13T01:03:46;101068.68;;;5.30;100.00
38289;BME280;24092;53.370;-6.588;2022-10-13T01:06:14;101074.43;;;5.35;100.00
38289;BME280;24092;53.370;-6.588;2022-10-13T01:08:41;101074.16;;;5.11;100.00
38289;BME280;24092;53.370;-6.588;2022-10-13T01:11:21;101074.67;;;4.69;100.00
38289;BME280;24092;53.370;-6.588;2022-10-13T01:13:57;101083.29;;;4.50;100.00
38289;BME280;24092;53.370;-6.588;2022-10-13T01:16:33;101083.16;;;2.92;100.00
38289;BME280;24092;53.370;-6.588;2022-10-13T01:19:18;101089.52;;;1.36;100.00
38289;BME280;24092;53.370;-6.588;2022-10-13T01:21:59;101089.44;;;0.09;100.00
38289;BME280;24092;53.370;-6.588;2022-10-13T01:24:42;101090.34;;;0.61;100.00
38289;BME280;24092;53.370;-6.588;2022-10-13T01:27:18;101085.19;;;0.14;100.00
38289;BME280;24092;53.370;-6.588;2022-10-13T01:30:04;101080.44;;;-0.29;100.00
38289;BME280;24092;53.370;-6.588;2022-10-13T01:32:39;101086.18;;;-0.29;100.00
38289;BME280;24092;53.370;-6.588;2022-10-13T01:35:12;101088.67;;;0.51;100.00
38289;BME280;24092;53.370;-6.588;2022-10-13T01:37:46;101084.74;;;0.75;100.00
38289;BME280;24092;53.370;-6.588;2022-10-13T01:40:20;101085.78;;;0.63;100.00
38289;BME280;24092;53.370;-6.588;2022-10-13T01:42:54;101084.71;;;1.04;100.00
38289;BME280;24092;53.370;-6.588;2022-10-13T01:45:29;101085.67;;;1.00;100.00
38289;BME280;24092;53.370;-6.588;2022-10-13T01:47:58;101090.61;;;1.86;100.00
38289;BME280;24092;53.370;-6.588;2022-10-13T01:50:27;101085.10;;;3.45;100.00
38289;BME280;24092;53.370;-6.588;2022-10-13T01:52:57;101086.43;;;3.22;100.00
38289;BME280;24092;53.370;-6.588;2022-10-13T01:55:25;101082.77;;;2.63;100.00
38289;BME280;24092;53.370;-6.588;2022-10-13T01:57:52;101075.57;;;2.26;100.00
38289;BME280;24092;53.370;-6.588;2022-10-13T02:00:21;101071.44;;;2.59;100.00
38289;BME280;24092;53.370;-6.588;2022-10-13T02:02:59;101066.60;;;2.98;100.00
38289;BME280;24092;53.370;-6.588;2022-10-13T02:05:37;101061.33;;;3.15;100.00
38289;BME280;24092;53.370;-6.588;2022-10-13T02:08:09;101057.12;;;1.69;100.00
38289;BME280;24092;53.370;-6.588;2022-10-13T02:10:43;101058.42;;;0.39;100.00
38289;BME280;24092;53.370;-6.588;2022-10-13T02:13:14;101050.07;;;2.54;100.00
38289;BME280;24092;53.370;-6.588;2022-10-13T02:15:47;101048.72;;;2.88;100.00
38289;BME280;24092;53.370;-6.588;2022-10-13T02:18:18;101054.13;;;1.49;100.00
38289;BME280;24092;53.370;-6.588;2022-10-13T02:20:47;101047.07;;;-0.20;100.00
38289;BME280;24092;53.370;-6.588;2022-10-13T02:23:16;101043.97;;;-0.64;100.00
38289;BME280;24092;53.370;-6.588;2022-10-13T02:25:45;101043.31;;;-0.69;100.00
38289;BME280;24092;53.370;-6.588;2022-10-13T02:28:14;101036.19;;;-0.74;100.00
38289;BME280;24092;53.370;-6.588;2022-10-13T02:30:43;101032.75;;;-0.84;100.00
38289;BME280;24092;53.370;-6.588;2022-10-13T02:33:11;101027.98;;;-1.72;100.00
38289;BME280;24092;53.370;-6.588;2022-10-13T02:35:39;101022.60;;;-1.79;100.00
38289;BME280;24092;53.370;-6.588;2022-10-13T02:38:06;101022.58;;;-1.33;100.00
38289;BME280;24092;53.370;-6.588;2022-10-13T02:40:33;101029.84;;;-1.83;100.00
38289;BME280;24092;53.370;-6.588;2022-10-13T02:43:01;101034.55;;;-2.40;100.00
38289;BME280;24092;53.370;-6.588;2022-10-13T02:45:29;101034.36;;;-1.92;100.00
38289;BME280;24092;53.370;-6.588;2022-10-13T02:47:56;101029.68;;;-1.89;100.00
38289;BME280;24092;53.370;-6.588;2022-10-13T02:50:23;101034.53;;;-2.03;100.00
38289;BME280;24092;53.370;-6.588;2022-10-13T02:52:51;101037.58;;;-1.84;100.00
38289;BME280;24092;53.370;-6.588;2022-10-13T02:55:18;101030.94;;;-2.31;100.00
38289;BME280;24092;53.370;-6.588;2022-10-13T02:57:45;101032.09;;;-2.92;100.00
38289;BME280;24092;53.370;-6.588;2022-10-13T03:00:14;101029.20;;;-2.57;100.00
38289;BME280;24092;53.370;-6.588;2022-10-13T03:02:42;101025.78;;;-2.62;100.00
38289;BME280;24092;53.370;-6.588;2022-10-13T03:05:09;101020.05;;;-2.34;100.00
38289;BME280;24092;53.370;-6.588;2022-10-13T03:07:36;101017.62;;;-2.44;100.00
38289;BME280;24092;53.370;-6.588;2022-10-13T03:10:04;101018.73;;;-0.42;100.00
38289;BME280;24092;53.370;-6.588;2022-10-13T03:12:31;101012.14;;;1.08;100.00
38289;BME280;24092;53.370;-6.588;2022-10-13T03:14:59;101006.51;;;1.72;100.00
38289;BME280;24092;53.370;-6.588;2022-10-13T03:17:26;101008.77;;;2.39;100.00
38289;BME280;24092;53.370;-6.588;2022-10-13T03:19:53;101007.26;;;2.50;100.00
38289;BME280;24092;53.370;-6.588;2022-10-13T03:22:20;101012.53;;;0.93;100.00
38289;BME280;24092;53.370;-6.588;2022-10-13T03:24:47;101008.73;;;-0.08;100.00
38289;BME280;24092;53.370;-6.588;2022-10-13T03:27:14;101005.22;;;2.06;100.00
38289;BME280;24092;53.370;-6.588;2022-10-13T03:29:41;101005.73;;;2.75;100.00
38289;BME280;24092;53.370;-6.588;2022-10-13T03:32:08;101017.55;;;2.57;100.00
38289;BME280;24092;53.370;-6.588;2022-10-13T03:34:36;101024.66;;;2.88;100.00
38289;BME280;24092;53.370;-6.588;2022-10-13T03:37:03;101033.40;;;3.69;100.00
38289;BME280;24092;53.370;-6.588;2022-10-13T03:39:30;101042.01;;;3.15;100.00
38289;BME280;24092;53.370;-6.588;2022-10-13T03:41:58;101039.43;;;2.74;100.00
38289;BME280;24092;53.370;-6.588;2022-10-13T03:44:24;101039.68;;;2.14;100.00
38289;BME280;24092;53.370;-6.588;2022-10-13T03:46:52;101032.94;;;2.34;100.00
38289;BME280;24092;53.370;-6.588;2022-10-13T03:49:19;101028.13;;;-0.89;100.00
38289;BME280;24092;53.370;-6.588;2022-10-13T03:51:47;101009.05;;;-1.51;100.00
38289;BME280;24092;53.370;-6.588;2022-10-13T03:54:14;100994.34;;;-2.55;100.00
38289;BME280;24092;53.370;-6.588;2022-10-13T03:56:41;100989.48;;;-2.63;100.00
38289;BME280;24092;53.370;-6.588;2022-10-13T03:59:11;100983.81;;;-2.81;100.00
38289;BME280;24092;53.370;-6.588;2022-10-13T04:01:38;100978.32;;;-2.59;100.00
38289;BME280;24092;53.370;-6.588;2022-10-13T04:04:08;100974.47;;;-0.40;100.00
38289;BME280;24092;53.370;-6.588;2022-10-13T04:06:36;100970.26;;;1.03;100.00
38289;BME280;24092;53.370;-6.588;2022-10-13T04:09:03;100962.65;;;-0.02;100.00
38289;BME280;24092;53.370;-6.588;2022-10-13T04:11:31;100962.74;;;-0.54;100.00
38289;BME280;24092;53.370;-6.588;2022-10-13T04:13:59;100966.48;;;-2.80;100.00
38289;BME280;24092;53.370;-6.588;2022-10-13T04:16:28;100971.88;;;-2.87;100.00
38289;BME280;24092;53.370;-6.588;2022-10-13T04:18:57;100972.79;;;-2.66;100.00
38289;BME280;24092;53.370;-6.588;2022-10-13T04:21:26;100966.64;;;-2.03;100.00
38289;BME280;24092;53.370;-6.588;2022-10-13T04:23:55;100963.81;;;-2.74;100.00
38289;BME280;24092;53.370;-6.588;2022-10-13T04:26:25;100960.06;;;-2.19;100.00
38289;BME280;24092;53.370;-6.588;2022-10-13T04:28:53;100956.38;;;0.08;100.00
38289;BME280;24092;53.370;-6.588;2022-10-13T04:31:21;100959.81;;;0.89;100.00
38289;BME280;24092;53.370;-6.588;2022-10-13T04:33:49;100965.07;;;1.31;100.00
38289;BME280;24092;53.370;-6.588;2022-10-13T04:36:17;100965.44;;;2.05;100.00
38289;BME280;24092;53.370;-6.588;2022-10-13T04:38:45;100959.03;;;2.14;100.00
38289;BME280;24092;53.370;-6.588;2022-10-13T04:41:13;100958.59;;;2.02;100.00
38289;BME280;24092;53.370;-6.588;2022-10-13T04:43:41;100958.33;;;2.06;100.00
38289;BME280;24092;53.370;-6.588;2022-10-13T04:46:11;100957.24;;;1.99;100.00
38289;BME280;24092;53.370;-6.588;2022-10-13T04:48:39;100962.86;;;1.84;100.00
38289;BME280;24092;53.370;-6.588;2022-10-13T04:51:08;100967.97;;;1.36;100.00
38289;BME280;24092;53.370;-6.588;2022-10-13T04:53:36;100966.70;;;1.59;100.00
38289;BME280;24092;53.370;-6.588;2022-10-13T04:56:06;100966.53;;;2.41;100.00
38289;BME280;24092;53.370;-6.588;2022-10-13T04:58:33;100968.95;;;2.92;100.00
38289;BME280;24092;53.370;-6.588;2022-10-13T05:01:01;100963.73;;;2.77;100.00
38289;BME280;24092;53.370;-6.588;2022-10-13T05:03:28;100963.27;;;2.04;100.00
38289;BME280;24092;53.370;-6.588;2022-10-13T05:05:56;100967.00;;;3.21;100.00
38289;BME280;24092;53.370;-6.588;2022-10-13T05:08:23;100965.81;;;2.41;100.00
38289;BME280;24092;53.370;-6.588;2022-10-13T05:10:53;100965.75;;;2.88;100.00
38289;BME280;24092;53.370;-6.588;2022-10-13T05:13:20;100968.50;;;2.63;100.00
38289;BME280;24092;53.370;-6.588;2022-10-13T05:15:47;100966.40;;;2.32;100.00
38289;BME280;24092;53.370;-6.588;2022-10-13T05:18:14;100960.57;;;2.60;100.00
38289;BME280;24092;53.370;-6.588;2022-10-13T05:20:41;100950.82;;;2.42;100.00
38289;BME280;24092;53.370;-6.588;2022-10-13T05:23:08;100947.60;;;1.74;100.00
38289;BME280;24092;53.370;-6.588;2022-10-13T05:25:36;100947.20;;;0.38;100.00
38289;BME280;24092;53.370;-6.588;2022-10-13T05:28:05;100942.98;;;2.23;100.00
38289;BME280;24092;53.370;-6.588;2022-10-13T05:30:33;100944.73;;;2.07;100.00
38289;BME280;24092;53.370;-6.588;2022-10-13T05:33:01;100946.80;;;1.83;100.00
38289;BME280;24092;53.370;-6.588;2022-10-13T05:35:28;100944.02;;;1.59;100.00
38289;BME280;24092;53.370;-6.588;2022-10-13T05:37:55;100942.76;;;1.85;100.00
38289;BME280;24092;53.370;-6.588;2022-10-13T05:40:22;100942.46;;;2.11;100.00
38289;BME280;24092;53.370;-6.588;2022-10-13T05:42:50;100947.54;;;1.36;100.00
38289;BME280;24092;53.370;-6.588;2022-10-13T05:45:18;100947.38;;;-0.76;100.00
38289;BME280;24092;53.370;-6.588;2022-10-13T05:47:47;100939.77;;;-3.02;100.00
38289;BME280;24092;53.370;-6.588;2022-10-13T05:50:14;100936.62;;;-2.59;100.00
38289;BME280;24092;53.370;-6.588;2022-10-13T05:52:42;100927.85;;;-2.90;100.00
38289;BME280;24092;53.370;-6.588;2022-10-13T05:55:10;100924.43;;;-2.78;100.00
38289;BME280;24092;53.370;-6.588;2022-10-13T05:57:41;100930.69;;;-1.65;100.00
38289;BME280;24092;53.370;-6.588;2022-10-13T06:00:12;100924.66;;;-1.42;100.00
38289;BME280;24092;53.370;-6.588;2022-10-13T06:02:42;100914.00;;;-1.05;100.00
38289;BME280;24092;53.370;-6.588;2022-10-13T06:05:15;100899.57;;;-2.75;100.00
38289;BME280;24092;53.370;-6.588;2022-10-13T06:07:44;100890.84;;;-1.88;100.00
38289;BME280;24092;53.370;-6.588;2022-10-13T06:10:13;100887.42;;;-3.20;100.00
38289;BME280;24092;53.370;-6.588;2022-10-13T06:12:41;100882.54;;;-3.52;100.00
38289;BME280;24092;53.370;-6.588;2022-10-13T06:15:09;100883.50;;;-3.37;100.00
38289;BME280;24092;53.370;-6.588;2022-10-13T06:17:36;100888.04;;;-2.74;100.00
38289;BME280;24092;53.370;-6.588;2022-10-13T06:20:03;100892.78;;;-2.91;100.00
38289;BME280;24092;53.370;-6.588;2022-10-13T06:22:31;100896.46;;;-3.02;100.00
38289;BME280;24092;53.370;-6.588;2022-10-13T06:24:58;100898.24;;;-3.36;100.00
38289;BME280;24092;53.370;-6.588;2022-10-13T06:27:25;100890.29;;;-2.98;100.00
38289;BME280;24092;53.370;-6.588;2022-10-13T06:29:52;100885.42;;;-2.93;100.00
38289;BME280;24092;53.370;-6.588;2022-10-13T06:32:19;100894.28;;;-2.33;100.00
38289;BME280;24092;53.370;-6.588;2022-10-13T06:34:46;100891.69;;;-0.10;100.00
38289;BME280;24092;53.370;-6.588;2022-10-13T06:37:13;100887.73;;;0.26;100.00
38289;BME280;24092;53.370;-6.588;2022-10-13T06:39:41;100895.95;;;0.79;100.00
38289;BME280;24092;53.370;-6.588;2022-10-13T06:42:08;100910.17;;;0.78;100.00
38289;BME280;24092;53.370;-6.588;2022-10-13T06:44:35;100916.08;;;1.36;100.00
38289;BME280;24092;53.370;-6.588;2022-10-13T06:47:02;100921.78;;;1.67;100.00
38289;BME280;24092;53.370;-6.588;2022-10-13T06:49:29;100931.23;;;0.80;100.00
38289;BME280;24092;53.370;-6.588;2022-10-13T06:51:56;100921.68;;;1.32;100.00
38289;BME280;24092;53.370;-6.588;2022-10-13T06:54:24;100912.45;;;0.76;100.00
38289;BME280;24092;53.370;-6.588;2022-10-13T06:56:51;100912.58;;;0.81;100.00
38289;BME280;24092;53.370;-6.588;2022-10-13T06:59:23;100925.89;;;1.63;100.00
38289;BME280;24092;53.370;-6.588;2022-10-13T07:01:50;100927.35;;;0.15;100.00
38289;BME280;24092;53.370;-6.588;2022-10-13T07:04:18;100921.98;;;-1.08;100.00
38289;BME280;24092;53.370;-6.588;2022-10-13T07:06:45;100920.27;;;1.10;100.00
38289;BME280;24092;53.370;-6.588;2022-10-13T07:09:12;100913.38;;;1.59;100.00
38289;BME280;24092;53.370;-6.588;2022-10-13T07:11:43;100923.62;;;0.42;100.00
38289;BME280;24092;53.370;-6.588;2022-10-13T07:14:11;100924.79;;;-1.07;100.00
38289;BME280;24092;53.370;-6.588;2022-10-13T07:16:38;100936.40;;;0.89;100.00
38289;BME280;24092;53.370;-6.588;2022-10-13T07:19:05;100929.45;;;0.77;100.00
38289;BME280;24092;53.370;-6.588;2022-10-13T07:21:32;100925.67;;;-0.07;100.00
38289;BME280;24092;53.370;-6.588;2022-10-13T07:24:01;100927.84;;;1.40;100.00
38289;BME280;24092;53.370;-6.588;2022-10-13T07:26:28;100921.67;;;0.93;100.00
38289;BME280;24092;53.370;-6.588;2022-10-13T07:28:56;100912.84;;;1.44;100.00
38289;BME280;24092;53.370;-6.588;2022-10-13T07:31:23;100906.66;;;-0.63;100.00
38289;BME280;24092;53.370;-6.588;2022-10-13T07:33:50;100905.87;;;-1.56;100.00
38289;BME280;24092;53.370;-6.588;2022-10-13T07:36:18;100913.34;;;-0.72;100.00
38289;BME280;24092;53.370;-6.588;2022-10-13T07:38:45;100914.83;;;-1.74;100.00
38289;BME280;24092;53.370;-6.588;2022-10-13T07:41:14;100917.38;;;-1.96;100.00
38289;BME280;24092;53.370;-6.588;2022-10-13T07:43:41;100915.98;;;-1.88;100.00
38289;BME280;24092;53.370;-6.588;2022-10-13T07:46:11;100911.05;;;-2.80;100.00
38289;BME280;24092;53.370;-6.588;2022-10-13T07:48:38;100911.04;;;-2.43;100.00
38289;BME280;24092;53.370;-6.588;2022-10-13T07:51:07;100910.41;;;-0.72;100.00
38289;BME280;24092;53.370;-6.588;2022-10-13T07:53:34;100915.99;;;1.03;100.00
38289;BME280;24092;53.370;-6.588;2022-10-13T07:56:04;100909.92;;;2.13;100.00
38289;BME280;24092;53.370;-6.588;2022-10-13T07:58:32;100907.34;;;1.52;100.00
38289;BME280;24092;53.370;-6.588;2022-10-13T08:01:00;100903.80;;;2.53;100.00
38289;BME280;24092;53.370;-6.588;2022-10-13T08:03:28;100905.89;;;2.62;100.00
38289;BME280;24092;53.370;-6.588;2022-10-13T08:05:57;100905.91;;;2.25;100.00
38289;BME280;24092;53.370;-6.588;2022-10-13T08:08:25;100908.80;;;3.16;100.00
38289;BME280;24092;53.370;-6.588;2022-10-13T08:10:53;100909.11;;;3.66;100.00
38289;BME280;24092;53.370;-6.588;2022-10-13T08:13:20;100908.04;;;3.44;100.00
38289;BME280;24092;53.370;-6.588;2022-10-13T08:15:47;100909.97;;;3.96;100.00
38289;BME280;24092;53.370;-6.588;2022-10-13T08:18:14;100915.52;;;3.77;100.00
38289;BME280;24092;53.370;-6.588;2022-10-13T08:20:42;100919.90;;;3.90;100.00
38289;BME280;24092;53.370;-6.588;2022-10-13T08:23:10;100924.70;;;3.84;100.00
38289;BME280;24092;53.370;-6.588;2022-10-13T08:25:38;100926.06;;;3.90;100.00
38289;BME280;24092;53.370;-6.588;2022-10-13T08:28:05;100925.03;;;4.02;100.00
38289;BME280;24092;53.370;-6.588;2022-10-13T08:30:32;100925.94;;;4.44;100.00
38289;BME280;24092;53.370;-6.588;2022-10-13T08:33:00;100918.58;;;3.62;100.00
38289;BME280;24092;53.370;-6.588;2022-10-13T08:35:27;100914.14;;;3.07;100.00
38289;BME280;24092;53.370;-6.588;2022-10-13T08:37:54;100915.56;;;2.13;100.00
38289;BME280;24092;53.370;-6.588;2022-10-13T08:40:21;100915.86;;;1.56;100.00
38289;BME280;24092;53.370;-6.588;2022-10-13T08:42:49;100915.11;;;1.99;100.00
38289;BME280;24092;53.370;-6.588;2022-10-13T08:45:19;100918.33;;;1.62;100.00
38289;BME280;24092;53.370;-6.588;2022-10-13T08:47:51;100918.72;;;2.28;100.00
38289;BME280;24092;53.370;-6.588;2022-10-13T08:50:22;100908.72;;;1.72;100.00
38289;BME280;24092;53.370;-6.588;2022-10-13T08:52:53;100911.99;;;2.23;100.00
38289;BME280;24092;53.370;-6.588;2022-10-13T08:55:28;100911.40;;;2.50;100.00
38289;BME280;24092;53.370;-6.588;2022-10-13T08:57:57;100913.89;;;3.35;100.00
38289;BME280;24092;53.370;-6.588;2022-10-13T09:00:25;100916.19;;;3.45;100.00
38289;BME280;24092;53.370;-6.588;2022-10-13T09:02:57;100912.26;;;4.85;100.00
38289;BME280;24092;53.370;-6.588;2022-10-13T09:05:36;100911.91;;;5.64;100.00
38289;BME280;24092;53.370;-6.588;2022-10-13T09:08:13;100903.97;;;6.00;100.00
38289;BME280;24092;53.370;-6.588;2022-10-13T09:10:48;100900.15;;;6.30;100.00
38289;BME280;24092;53.370;-6.588;2022-10-13T09:13:16;100899.53;;;6.37;100.00
38289;BME280;24092;53.370;-6.588;2022-10-13T09:15:46;100897.98;;;6.74;100.00
38289;BME280;24092;53.370;-6.588;2022-10-13T09:18:14;100891.44;;;6.93;100.00
38289;BME280;24092;53.370;-6.588;2022-10-13T09:20:41;100885.61;;;7.53;100.00
38289;BME280;24092;53.370;-6.588;2022-10-13T09:23:18;100885.37;;;7.21;100.00
38289;BME280;24092;53.370;-6.588;2022-10-13T09:25:46;100890.10;;;7.37;100.00
38289;BME280;24092;53.370;-6.588;2022-10-13T09:28:17;100881.66;;;7.43;100.00
38289;BME280;24092;53.370;-6.588;2022-10-13T09:30:46;100876.04;;;7.12;100.00
38289;BME280;24092;53.370;-6.588;2022-10-13T09:33:20;100870.62;;;7.36;100.00
38289;BME280;24092;53.370;-6.588;2022-10-13T09:36:05;100865.34;;;8.10;100.00
38289;BME280;24092;53.370;-6.588;2022-10-13T09:38:33;100860.25;;;8.03;100.00
38289;BME280;24092;53.370;-6.588;2022-10-13T09:41:03;100856.20;;;8.30;100.00
38289;BME280;24092;53.370;-6.588;2022-10-13T09:43:34;100852.25;;;8.35;100.00
38289;BME280;24092;53.370;-6.588;2022-10-13T09:46:10;100849.46;;;9.13;100.00
38289;BME280;24092;53.370;-6.588;2022-10-13T09:48:38;100840.06;;;8.33;100.00
38289;BME280;24092;53.370;-6.588;2022-10-13T09:51:28;100830.41;;;8.75;100.00
38289;BME280;24092;53.370;-6.588;2022-10-13T09:53:56;100825.82;;;9.27;100.00
38289;BME280;24092;53.370;-6.588;2022-10-13T09:56:27;100823.87;;;8.76;100.00
38289;BME280;24092;53.370;-6.588;2022-10-13T09:59:03;100824.92;;;8.22;100.00
38289;BME280;24092;53.370;-6.588;2022-10-13T10:01:34;100823.67;;;8.70;100.00
38289;BME280;24092;53.370;-6.588;2022-10-13T10:04:06;100818.84;;;8.91;100.00
38289;BME280;24092;53.370;-6.588;2022-10-13T10:06:36;100819.93;;;9.40;100.00
38289;BME280;24092;53.370;-6.588;2022-10-13T10:09:15;100818.41;;;9.52;100.00
38289;BME280;24092;53.370;-6.588;2022-10-13T10:11:47;100813.63;;;9.39;100.00
38289;BME280;24092;53.370;-6.588;2022-10-13T10:14:20;100798.03;;;8.96;100.00
38289;BME280;24092;53.370;-6.588;2022-10-13T10:16:54;100789.72;;;8.70;100.00
38289;BME280;24092;53.370;-6.588;2022-10-13T10:19:28;100786.27;;;8.61;100.00
38289;BME280;24092;53.370;-6.588;2022-10-13T10:22:03;100782.54;;;7.92;100.00
38289;BME280;24092;53.370;-6.588;2022-10-13T10:24:37;100784.18;;;8.55;100.00
38289;BME280;24092;53.370;-6.588;2022-10-13T10:27:14;100777.57;;;8.05;100.00
38289;BME280;24092;53.370;-6.588;2022-10-13T10:29:47;100771.87;;;7.97;100.00
38289;BME280;24092;53.370;-6.588;2022-10-13T10:32:26;100771.75;;;8.24;100.00
38289;BME280;24092;53.370;-6.588;2022-10-13T10:34:58;100766.33;;;8.60;100.00
38289;BME280;24092;53.370;-6.588;2022-10-13T10:37:40;100760.03;;;8.74;100.00
38289;BME280;24092;53.370;-6.588;2022-10-13T10:40:24;100768.85;;;8.92;100.00
38289;BME280;24092;53.370;-6.588;2022-10-13T10:43:09;100772.89;;;9.13;100.00
38289;BME280;24092;53.370;-6.588;2022-10-13T10:45:46;100766.42;;;8.78;100.00
38289;BME280;24092;53.370;-6.588;2022-10-13T10:48:18;100764.90;;;8.89;100.00
38289;BME280;24092;53.370;-6.588;2022-10-13T10:50:49;100763.79;;;8.83;100.00
38289;BME280;24092;53.370;-6.588;2022-10-13T10:53:25;100760.38;;;8.90;100.00
38289;BME280;24092;53.370;-6.588;2022-10-13T10:55:58;100748.91;;;9.44;100.00
38289;BME280;24092;53.370;-6.588;2022-10-13T10:58:38;100749.43;;;9.42;100.00
38289;BME280;24092;53.370;-6.588;2022-10-13T11:01:20;100749.95;;;9.38;100.00
38289;BME280;24092;53.370;-6.588;2022-10-13T11:03:56;100747.54;;;8.45;100.00
38289;BME280;24092;53.370;-6.588;2022-10-13T11:06:32;100744.75;;;9.18;100.00
38289;BME280;24092;53.370;-6.588;2022-10-13T11:09:00;100743.87;;;8.49;100.00
38289;BME280;24092;53.370;-6.588;2022-10-13T11:11:31;100745.42;;;8.55;100.00
38289;BME280;24092;53.370;-6.588;2022-10-13T11:14:00;100743.26;;;8.57;100.00
38289;BME280;24092;53.370;-6.588;2022-10-13T11:16:30;100739.63;;;9.15;100.00
38289;BME280;24092;53.370;-6.588;2022-10-13T11:19:02;100737.40;;;8.87;100.00
38289;BME280;24092;53.370;-6.588;2022-10-13T11:22:10;100727.43;;;8.88;100.00
38289;BME280;24092;53.370;-6.588;2022-10-13T11:25:43;100727.50;;;9.38;100.00
38289;BME280;24092;53.370;-6.588;2022-10-13T11:29:18;100723.60;;;9.14;100.00
38289;BME280;24092;53.370;-6.588;2022-10-13T11:32:42;100718.59;;;8.82;100.00
38289;BME280;24092;53.370;-6.588;2022-10-13T11:35:19;100719.91;;;9.06;100.00
38289;BME280;24092;53.370;-6.588;2022-10-13T11:37:55;100727.31;;;8.95;100.00
38289;BME280;24092;53.370;-6.588;2022-10-13T11:40:32;100728.10;;;8.78;100.00
38289;BME280;24092;53.370;-6.588;2022-10-13T11:43:19;100729.78;;;8.54;100.00
38289;BME280;24092;53.370;-6.588;2022-10-13T11:45:59;100734.02;;;9.70;100.00
38289;BME280;24092;53.370;-6.588;2022-10-13T11:49:46;100743.08;;;9.38;100.00
38289;BME280;24092;53.370;-6.588;2022-10-13T11:52:34;100742.41;;;9.45;100.00
38289;BME280;24092;53.370;-6.588;2022-10-13T11:55:12;100737.41;;;9.11;100.00
38289;BME280;24092;53.370;-6.588;2022-10-13T11:57:42;100732.39;;;9.23;100.00
38289;BME280;24092;53.370;-6.588;2022-10-13T12:00:14;100734.30;;;9.33;100.00
38289;BME280;24092;53.370;-6.588;2022-10-13T12:02:50;100738.04;;;9.39;100.00
38289;BME280;24092;53.370;-6.588;2022-10-13T12:05:22;100740.93;;;9.67;100.00
38289;BME280;24092;53.370;-6.588;2022-10-13T12:07:50;100743.57;;;8.78;100.00
38289;BME280;24092;53.370;-6.588;2022-10-13T12:10:22;100739.49;;;9.36;100.00
38289;BME280;24092;53.370;-6.588;2022-10-13T12:12:51;100742.95;;;9.45;100.00
38289;BME280;24092;53.370;-6.588;2022-10-13T12:15:29;100744.08;;;9.36;100.00
38289;BME280;24092;53.370;-6.588;2022-10-13T12:17:57;100731.95;;;9.42;100.00
38289;BME280;24092;53.370;-6.588;2022-10-13T12:20:26;100719.22;;;9.94;100.00
38289;BME280;24092;53.370;-6.588;2022-10-13T12:22:54;100717.78;;;9.79;100.00
38289;BME280;24092;53.370;-6.588;2022-10-13T12:25:24;100705.37;;;10.00;100.00
38289;BME280;24092;53.370;-6.588;2022-10-13T12:27:54;100707.87;;;9.93;100.00
38289;BME280;24092;53.370;-6.588;2022-10-13T12:30:25;100698.91;;;9.78;100.00
38289;BME280;24092;53.370;-6.588;2022-10-13T12:32:54;100695.57;;;9.84;100.00
38289;BME280;24092;53.370;-6.588;2022-10-13T12:35:24;100683.54;;;9.75;100.00
38289;BME280;24092;53.370;-6.588;2022-10-13T12:37:53;100670.86;;;10.18;100.00
38289;BME280;24092;53.370;-6.588;2022-10-13T12:40:21;100664.01;;;11.02;100.00
38289;BME280;24092;53.370;-6.588;2022-10-13T12:42:49;100665.72;;;10.74;100.00
38289;BME280;24092;53.370;-6.588;2022-10-13T12:45:18;100663.66;;;10.11;100.00
38289;BME280;24092;53.370;-6.588;2022-10-13T12:47:48;100662.52;;;9.82;100.00
38289;BME280;24092;53.370;-6.588;2022-10-13T12:50:32;100663.57;;;10.04;100.00
38289;BME280;24092;53.370;-6.588;2022-10-13T12:53:11;100656.96;;;9.88;100.00
38289;BME280;24092;53.370;-6.588;2022-10-13T12:55:51;100648.03;;;10.61;100.00
38289;BME280;24092;53.370;-6.588;2022-10-13T12:58:22;100641.18;;;10.08;100.00